Time;durP1;ratioP1;P1;durP2;ratioP2;P2;SDS_P1;SDS_P2;PMS_P1;PMS_P2;Temp;Humidity;BMP_temperature;BMP_pressure;BME280_temperature;BME280_humidity;BME280_pressure;Samples;Min_cycle;Max_cycle;Signal;HPM_P1;HPM_P2
2022/12/13 00:00:34;;;;;;;31.77;19.63;;;-0.80;99.90;;;;;;5073458;28;20175;-62
2022/12/13 00:03:00;;;;;;;32.90;20.33;;;-0.90;99.90;;;;;;5073355;28;20202;-61
2022/12/13 00:05:26;;;;;;;32.53;20.80;;;-1.00;99.90;;;;;;5073193;28;20221;-63
2022/12/13 00:07:51;;;;;;;32.53;20.83;;;-1.00;99.90;;;;;;5073401;28;20625;-61
2022/12/13 00:10:17;;;;;;;34.43;21.50;;;-1.00;99.90;;;;;;5073197;28;20262;-61
2022/12/13 00:12:42;;;;;;;34.93;21.17;;;-1.10;99.90;;;;;;5073072;28;20174;-61
2022/12/13 00:15:09;;;;;;;30.20;20.43;;;-1.00;99.90;;;;;;5073622;28;20193;-61
2022/12/13 00:17:34;;;;;;;34.60;20.73;;;-0.90;99.90;;;;;;5073727;28;20174;-61
2022/12/13 00:20:00;;;;;;;35.07;20.93;;;-1.00;99.90;;;;;;5073166;28;20590;-63
2022/12/13 00:22:25;;;;;;;32.07;20.90;;;-1.20;99.90;;;;;;5073106;28;20198;-61
2022/12/13 00:24:54;;;;;;;30.60;19.83;;;-1.10;99.90;;;;;;5072011;28;20690;-61
2022/12/13 00:27:19;;;;;;;34.10;19.77;;;-0.90;99.90;;;;;;5072949;28;20171;-62
2022/12/13 00:29:45;;;;;;;30.97;20.50;;;-0.80;99.90;;;;;;5071879;28;20190;-61
2022/12/13 00:32:11;;;;;;;30.47;19.90;;;-0.90;99.90;;;;;;5073035;28;20171;-61
2022/12/13 00:34:36;;;;;;;34.83;20.43;;;-0.90;99.90;;;;;;5073017;28;20201;-61
2022/12/13 00:37:02;;;;;;;33.10;20.50;;;-1.10;99.90;;;;;;5072945;28;20285;-61
2022/12/13 00:39:28;;;;;;;30.90;20.37;;;-1.20;99.90;;;;;;5071599;28;20628;-61
2022/12/13 00:41:54;;;;;;;32.33;20.20;;;-1.30;99.90;;;;;;5072824;28;20178;-61
2022/12/13 00:44:19;;;;;;;34.77;20.47;;;-1.30;99.90;;;;;;5072979;28;20269;-61
2022/12/13 00:46:50;;;;;;;31.70;19.63;;;-1.50;99.90;;;;;;5072985;28;20261;-61
2022/12/13 00:49:16;;;;;;;31.70;19.93;;;-1.40;99.90;;;;;;5072837;28;20187;-61
2022/12/13 00:51:42;;;;;;;29.20;20.07;;;-1.40;99.90;;;;;;5072785;28;20185;-61
2022/12/13 00:54:08;;;;;;;33.33;20.57;;;-1.40;99.90;;;;;;5072791;28;20179;-61
2022/12/13 00:56:36;;;;;;;29.97;19.37;;;-1.40;99.90;;;;;;5072917;28;20171;-59
2022/12/13 00:59:02;;;;;;;31.37;19.87;;;-1.40;99.90;;;;;;5072680;28;20258;-61
2022/12/13 01:01:31;;;;;;;33.83;19.97;;;-1.40;99.90;;;;;;5072731;28;20210;-61
2022/12/13 01:03:59;;;;;;;33.83;19.37;;;-1.30;99.90;;;;;;5072564;28;20611;-61
2022/12/13 01:06:34;;;;;;;33.20;20.60;;;-1.30;99.90;;;;;;5072436;28;20217;-62
2022/12/13 01:09:01;;;;;;;28.77;18.77;;;-1.50;99.90;;;;;;5071270;28;20224;-63
2022/12/13 01:11:27;;;;;;;32.73;19.63;;;-1.60;99.90;;;;;;5072769;28;20247;-61
2022/12/13 01:13:53;;;;;;;28.87;19.47;;;-1.60;99.90;;;;;;5054905;28;20236;-61
2022/12/13 01:16:18;;;;;;;33.30;18.13;;;-1.70;99.90;;;;;;5072910;28;20608;-61
2022/12/13 01:18:44;;;;;;;31.43;18.77;;;-1.60;99.90;;;;;;5071285;28;20570;-61
2022/12/13 01:21:13;;;;;;;30.43;18.83;;;-1.70;99.90;;;;;;5072447;28;20194;-60
2022/12/13 01:23:40;;;;;;;32.67;19.13;;;-1.60;99.90;;;;;;5072591;28;20191;-62
2022/12/13 01:26:08;;;;;;;30.80;19.10;;;-1.50;99.90;;;;;;5072209;28;20222;-62
2022/12/13 01:28:34;;;;;;;27.53;17.77;;;-1.60;99.90;;;;;;5072337;28;20647;-61
2022/12/13 01:31:03;;;;;;;24.83;17.30;;;-1.60;99.90;;;;;;5072459;28;20171;-60
2022/12/13 01:33:29;;;;;;;28.17;17.43;;;-1.60;99.90;;;;;;5071161;28;20179;-61
2022/12/13 01:35:55;;;;;;;30.87;19.07;;;-1.60;99.90;;;;;;5073073;28;20183;-61
2022/12/13 01:38:22;;;;;;;28.07;17.60;;;-1.60;99.90;;;;;;5075978;28;20175;-61
2022/12/13 01:40:57;;;;;;;24.77;17.07;;;-1.60;99.90;;;;;;5076005;28;20179;-61
2022/12/13 01:43:48;;;;;;;28.50;17.57;;;-1.70;99.90;;;;;;5076176;28;20209;-61
2022/12/13 01:46:16;;;;;;;28.17;17.60;;;-1.50;99.90;;;;;;5075551;28;20258;-61
2022/12/13 01:48:50;;;;;;;27.23;18.00;;;-1.20;99.90;;;;;;5076001;28;20178;-61
2022/12/13 01:51:23;;;;;;;29.03;17.93;;;-1.10;99.90;;;;;;5075833;28;20208;-61
2022/12/13 01:53:53;;;;;;;31.17;18.83;;;-1.10;99.90;;;;;;5075737;28;20621;-61
2022/12/13 01:56:26;;;;;;;29.30;18.43;;;-1.20;99.90;;;;;;5075995;28;20210;-61
2022/12/13 01:58:53;;;;;;;29.40;18.90;;;-1.50;99.90;;;;;;5075551;28;20181;-61
2022/12/13 02:01:20;;;;;;;28.47;17.10;;;-1.40;99.90;;;;;;5075816;28;20183;-61
2022/12/13 02:03:46;;;;;;;31.00;18.27;;;-1.20;99.90;;;;;;5075625;28;20206;-61
2022/12/13 02:06:43;;;;;;;30.07;18.10;;;-1.10;99.90;;;;;;5075359;28;20242;-61
2022/12/13 02:09:10;;;;;;;28.60;17.57;;;-1.10;99.90;;;;;;5067049;28;20244;-61
2022/12/13 02:11:38;;;;;;;30.27;17.03;;;-1.00;99.90;;;;;;5075557;28;20179;-61
2022/12/13 02:14:04;;;;;;;28.73;17.73;;;-0.90;99.90;;;;;;5075451;28;20224;-61
2022/12/13 02:16:55;;;;;;;26.77;16.50;;;-0.80;99.90;;;;;;5074259;28;20202;-61
2022/12/13 02:19:53;;;;;;;31.73;18.43;;;-0.60;99.90;;;;;;5075247;28;20170;-61
2022/12/13 02:22:46;;;;;;;29.57;18.43;;;-0.70;99.90;;;;;;5075279;28;20250;-61
2022/12/13 02:25:36;;;;;;;30.87;18.00;;;-0.60;99.90;;;;;;5074797;28;20223;-61
2022/12/13 02:28:31;;;;;;;29.13;17.80;;;-0.50;99.90;;;;;;5075002;28;20167;-61
2022/12/13 02:31:14;;;;;;;28.43;17.97;;;-0.60;99.90;;;;;;5075128;28;20220;-61
2022/12/13 02:33:54;;;;;;;31.13;18.83;;;-0.60;99.90;;;;;;5075039;28;20167;-61
2022/12/13 02:36:25;;;;;;;25.40;17.30;;;-0.70;99.90;;;;;;5074823;28;20677;-61
2022/12/13 02:38:59;;;;;;;29.70;17.57;;;-0.70;99.90;;;;;;5074696;28;20179;-61
2022/12/13 02:41:45;;;;;;;31.47;17.90;;;-0.60;99.90;;;;;;5075067;28;20213;-61
2022/12/13 02:44:21;;;;;;;26.63;17.90;;;-0.90;99.90;;;;;;5074647;28;20528;-61
2022/12/13 02:46:54;;;;;;;27.70;17.23;;;-1.00;99.90;;;;;;5074540;28;20688;-61
2022/12/13 02:49:24;;;;;;;27.23;17.27;;;-1.00;99.90;;;;;;5074207;28;20174;-61
2022/12/13 02:51:51;;;;;;;28.10;17.80;;;-0.90;99.90;;;;;;5074896;28;20178;-61
2022/12/13 02:54:17;;;;;;;27.03;16.97;;;-0.90;99.90;;;;;;5073352;28;20175;-61
2022/12/13 02:56:53;;;;;;;32.70;18.43;;;-0.90;99.90;;;;;;5074533;28;20584;-61
2022/12/13 02:59:18;;;;;;;29.23;17.57;;;-0.80;99.90;;;;;;5074486;28;20652;-61
2022/12/13 03:02:01;;;;;;;28.70;17.60;;;-0.90;99.90;;;;;;5074273;28;20179;-61
2022/12/13 03:08:12;;;;;;;25.60;16.80;;;-0.90;99.90;;;;;;5074196;28;20190;-61
2022/12/13 03:10:57;;;;;;;28.57;17.77;;;-0.70;99.90;;;;;;5074274;28;20171;-61
2022/12/13 03:13:43;;;;;;;27.43;16.73;;;-0.80;99.90;;;;;;5074354;28;20216;-61
2022/12/13 03:16:35;;;;;;;25.97;16.03;;;-1.00;99.90;;;;;;5074404;28;20181;-61
2022/12/13 03:19:04;;;;;;;26.03;16.93;;;-1.00;99.90;;;;;;5074069;28;20253;-61
2022/12/13 03:21:47;;;;;;;25.77;15.93;;;-1.00;99.90;;;;;;5073763;28;20636;-61
2022/12/13 03:24:16;;;;;;;25.50;16.63;;;-1.00;99.90;;;;;;5073462;28;20202;-61
2022/12/13 03:26:42;;;;;;;23.50;16.27;;;-1.00;99.90;;;;;;5074170;28;20171;-61
2022/12/13 03:29:07;;;;;;;26.20;16.10;;;-0.90;99.90;;;;;;5073938;28;20564;-61
2022/12/13 03:31:33;;;;;;;27.53;16.00;;;-1.00;99.90;;;;;;5072651;28;20713;-61
2022/12/13 03:33:59;;;;;;;25.13;15.40;;;-1.00;99.90;;;;;;5072814;28;20229;-61
2022/12/13 03:36:25;;;;;;;24.43;15.20;;;-1.10;99.90;;;;;;5073713;28;20659;-61
2022/12/13 03:38:53;;;;;;;24.30;16.43;;;-1.00;99.90;;;;;;5073544;28;20179;-61
2022/12/13 03:41:22;;;;;;;25.53;16.60;;;-0.90;99.90;;;;;;5073741;28;20199;-61
2022/12/13 03:43:48;;;;;;;22.70;15.20;;;-0.90;99.90;;;;;;5073671;28;20167;-61
2022/12/13 03:46:14;;;;;;;24.87;15.37;;;-0.80;99.90;;;;;;5073478;28;20229;-61
2022/12/13 03:48:40;;;;;;;25.07;16.13;;;-0.80;99.90;;;;;;5073548;28;20178;-61
2022/12/13 03:51:06;;;;;;;23.33;14.87;;;-0.80;99.90;;;;;;5073459;28;20178;-61
2022/12/13 03:53:35;;;;;;;23.00;14.43;;;-1.00;99.90;;;;;;5073333;28;20213;-61
2022/12/13 03:56:02;;;;;;;24.50;15.90;;;-0.90;99.90;;;;;;5073585;28;20179;-61
2022/12/13 03:58:29;;;;;;;25.30;15.63;;;-1.30;99.90;;;;;;5073336;28;20179;-61
2022/12/13 04:00:55;;;;;;;21.13;14.80;;;-1.30;99.90;;;;;;5072324;28;20659;-61
2022/12/13 04:03:20;;;;;;;25.10;15.60;;;-1.30;99.90;;;;;;5073355;28;20224;-61
2022/12/13 04:05:46;;;;;;;20.23;15.17;;;-1.30;99.90;;;;;;5072007;28;20260;-59
2022/12/13 04:08:11;;;;;;;25.00;15.47;;;-1.50;99.90;;;;;;5073140;28;20175;-61
2022/12/13 04:10:37;;;;;;;28.93;15.97;;;-1.50;99.90;;;;;;5073682;28;20532;-61
2022/12/13 04:15:49;;;;;;;23.30;14.30;;;-1.40;99.90;;;;;;5073589;28;20248;-60
2022/12/13 04:18:18;;;;;;;24.40;14.83;;;-1.30;99.90;;;;;;5071864;28;20694;-60
2022/12/13 04:20:45;;;;;;;26.23;15.33;;;-1.30;99.90;;;;;;5073199;28;20179;-61
2022/12/13 04:23:11;;;;;;;22.83;14.83;;;-1.40;99.90;;;;;;5073207;28;20171;-60
2022/12/13 04:25:37;;;;;;;23.27;15.00;;;-1.20;99.90;;;;;;5073121;28;20242;-60
2022/12/13 04:28:03;;;;;;;24.20;16.50;;;-1.30;99.90;;;;;;5073120;28;20175;-61
2022/12/13 04:30:29;;;;;;;24.47;16.10;;;-1.20;99.90;;;;;;5073011;28;20167;-61
2022/12/13 04:32:56;;;;;;;24.23;15.80;;;-1.20;99.90;;;;;;5072808;28;20268;-61
2022/12/13 04:35:21;;;;;;;24.67;14.83;;;-1.30;99.90;;;;;;5073174;28;20613;-61
2022/12/13 04:37:47;;;;;;;24.60;15.40;;;-1.60;99.90;;;;;;5072923;28;20229;-61
2022/12/13 04:40:13;;;;;;;21.70;14.80;;;-1.60;99.90;;;;;;5072928;28;20171;-61
2022/12/13 04:42:39;;;;;;;22.77;15.13;;;-1.40;99.90;;;;;;5072834;28;20536;-60
2022/12/13 04:45:05;;;;;;;23.30;15.03;;;-1.40;99.90;;;;;;5072738;28;20217;-61
2022/12/13 04:47:31;;;;;;;24.20;14.80;;;-1.50;99.90;;;;;;5072679;28;20636;-60
2022/12/13 04:49:56;;;;;;;23.40;14.43;;;-1.40;99.90;;;;;;5072745;28;20179;-61
2022/12/13 04:52:22;;;;;;;23.20;14.40;;;-1.70;99.90;;;;;;5072588;28;20186;-61
2022/12/13 04:54:48;;;;;;;22.03;14.57;;;-1.60;99.90;;;;;;5072889;28;20538;-61
2022/12/13 04:57:14;;;;;;;19.57;13.30;;;-1.60;99.90;;;;;;5073076;28;20598;-61
2022/12/13 04:59:40;;;;;;;22.57;15.13;;;-1.50;99.90;;;;;;5072777;28;20256;-61
2022/12/13 05:02:07;;;;;;;19.70;14.10;;;-1.60;99.90;;;;;;5072625;28;20254;-61
2022/12/13 05:04:33;;;;;;;22.93;14.27;;;-1.50;99.90;;;;;;5072432;28;20179;-61
2022/12/13 05:06:59;;;;;;;20.77;13.73;;;-1.50;99.90;;;;;;5072686;28;20179;-60
2022/12/13 05:09:25;;;;;;;22.13;15.43;;;-1.40;99.90;;;;;;5072852;28;20258;-61
2022/12/13 05:11:50;;;;;;;25.00;14.90;;;-1.40;99.90;;;;;;5073681;28;20214;-61
2022/12/13 05:14:16;;;;;;;20.47;13.63;;;-1.50;99.90;;;;;;5076352;28;20229;-61
2022/12/13 05:16:42;;;;;;;19.87;13.17;;;-1.60;99.90;;;;;;5076201;28;20179;-61
2022/12/13 05:19:07;;;;;;;19.50;13.00;;;-1.60;99.90;;;;;;5076148;28;20183;-61
2022/12/13 05:21:33;;;;;;;20.53;13.20;;;-1.60;99.90;;;;;;5076577;28;20176;-61
2022/12/13 05:24:01;;;;;;;19.80;13.70;;;-1.60;99.90;;;;;;5076179;28;20236;-60
2022/12/13 05:26:27;;;;;;;19.43;13.77;;;-1.40;99.90;;;;;;5076201;28;20663;-61
2022/12/13 05:28:55;;;;;;;20.40;14.10;;;-1.40;99.90;;;;;;5075914;28;20289;-61
2022/12/13 05:31:21;;;;;;;19.43;13.77;;;-1.60;99.90;;;;;;5075950;28;20187;-61
2022/12/13 05:33:50;;;;;;;19.03;13.60;;;-1.60;99.90;;;;;;5075850;28;20586;-60
2022/12/13 05:36:15;;;;;;;20.90;13.67;;;-1.70;99.90;;;;;;5074705;28;20182;-61
2022/12/13 05:38:41;;;;;;;21.30;14.23;;;-2.00;99.90;;;;;;5074827;28;20176;-61
2022/12/13 05:41:16;;;;;;;27.47;17.57;;;-1.90;99.90;;;;;;5075912;28;20171;-61
2022/12/13 05:43:41;;;;;;;21.43;13.87;;;-1.80;99.90;;;;;;5075921;28;20175;-60
2022/12/13 05:46:07;;;;;;;20.73;14.20;;;-1.90;99.90;;;;;;5075684;28;20685;-61
2022/12/13 05:48:33;;;;;;;36.00;22.57;;;-1.80;99.90;;;;;;5075831;28;20179;-61
2022/12/13 05:50:59;;;;;;;21.07;13.27;;;-1.90;99.90;;;;;;5075382;28;20730;-61
2022/12/13 05:53:24;;;;;;;21.40;14.07;;;-1.90;99.90;;;;;;5075507;28;20187;-61
2022/12/13 05:55:50;;;;;;;22.43;16.07;;;-2.00;99.90;;;;;;5075536;28;20225;-67
2022/12/13 05:58:16;;;;;;;20.77;13.40;;;-1.90;99.90;;;;;;5075593;28;20182;-66
2022/12/13 06:00:42;;;;;;;50.57;31.20;;;-1.90;99.90;;;;;;5075944;28;20191;-62
2022/12/13 06:03:08;;;;;;;25.63;16.60;;;-1.80;99.90;;;;;;5074686;28;20260;-63
2022/12/13 06:05:34;;;;;;;25.17;17.63;;;-1.90;99.90;;;;;;5073977;28;20326;-63
2022/12/13 06:08:00;;;;;;;20.50;14.30;;;-1.80;99.90;;;;;;5074708;28;20191;-63
2022/12/13 06:10:26;;;;;;;21.40;14.50;;;-1.70;99.90;;;;;;5075505;28;20183;-63
2022/12/13 06:12:52;;;;;;;19.97;13.67;;;-1.70;99.90;;;;;;5075237;28;20202;-63
2022/12/13 06:15:18;;;;;;;21.37;13.67;;;-1.70;99.90;;;;;;5075471;28;20213;-63
2022/12/13 06:17:43;;;;;;;19.60;13.40;;;-1.60;99.90;;;;;;5075373;28;20179;-64
2022/12/13 06:20:10;;;;;;;20.37;13.17;;;-1.70;99.90;;;;;;5075316;28;20175;-64
2022/12/13 06:22:35;;;;;;;28.77;19.13;;;-1.70;99.90;;;;;;5073926;28;20175;-65
2022/12/13 06:25:01;;;;;;;27.87;19.37;;;-1.70;99.90;;;;;;5075275;28;20245;-65
2022/12/13 06:27:27;;;;;;;24.43;17.60;;;-1.60;99.90;;;;;;5075035;28;20187;-63
2022/12/13 06:29:52;;;;;;;24.17;16.23;;;-1.60;99.90;;;;;;5075221;28;20183;-63
2022/12/13 06:32:18;;;;;;;48.53;34.03;;;-1.70;99.90;;;;;;5075395;28;20175;-65
2022/12/13 06:34:44;;;;;;;28.77;20.30;;;-1.60;99.90;;;;;;5075561;28;20175;-63
2022/12/13 06:37:12;;;;;;;22.13;15.27;;;-1.60;99.90;;;;;;5074953;28;20182;-63
2022/12/13 06:39:38;;;;;;;31.10;21.63;;;-1.90;99.90;;;;;;5074708;28;20270;-63
2022/12/13 06:42:05;;;;;;;33.10;22.03;;;-2.00;99.90;;;;;;5074524;28;20159;-63
2022/12/13 06:44:31;;;;;;;20.57;15.27;;;-1.90;99.90;;;;;;5074501;28;20171;-63
2022/12/13 06:46:59;;;;;;;21.50;14.27;;;-1.80;99.90;;;;;;5074506;28;20667;-64
2022/12/13 06:49:24;;;;;;;22.37;16.13;;;-2.00;99.90;;;;;;5074465;28;20194;-63
2022/12/13 06:51:50;;;;;;;30.13;19.43;;;-1.80;99.90;;;;;;5073317;28;20183;-63
2022/12/13 06:54:16;;;;;;;33.13;21.70;;;-1.80;99.90;;;;;;5074441;28;20187;-63
2022/12/13 06:56:41;;;;;;;36.30;23.33;;;-1.90;99.90;;;;;;5074237;28;20171;-63
2022/12/13 06:59:07;;;;;;;25.50;15.80;;;-1.90;99.90;;;;;;5074356;28;20179;-63
2022/12/13 07:01:32;;;;;;;25.37;14.80;;;-1.80;99.90;;;;;;5074388;28;20184;-63
2022/12/13 07:03:58;;;;;;;59.20;40.20;;;-2.00;99.90;;;;;;5074293;28;20179;-62
2022/12/13 07:06:25;;;;;;;34.73;23.00;;;-1.70;99.90;;;;;;5074201;28;20234;-63
2022/12/13 07:08:55;;;;;;;32.80;21.77;;;-1.80;99.90;;;;;;5074170;28;20540;-63
2022/12/13 07:11:25;;;;;;;31.77;20.90;;;-1.80;99.90;;;;;;5074057;28;20206;-63
2022/12/13 07:13:52;;;;;;;37.90;24.40;;;-1.70;99.90;;;;;;5074268;28;20578;-63
2022/12/13 07:16:18;;;;;;;25.07;16.77;;;-1.80;99.90;;;;;;5074074;28;20179;-63
2022/12/13 07:18:43;;;;;;;29.07;17.03;;;-1.80;99.90;;;;;;5073965;28;20305;-63
2022/12/13 07:21:11;;;;;;;29.30;18.40;;;-1.70;99.90;;;;;;5073925;28;20238;-63
2022/12/13 07:23:38;;;;;;;44.83;25.33;;;-1.80;99.90;;;;;;5073778;28;20204;-63
2022/12/13 07:26:05;;;;;;;40.00;24.80;;;-1.90;99.90;;;;;;5074001;28;20610;-63
2022/12/13 07:28:35;;;;;;;27.43;17.87;;;-2.00;99.90;;;;;;5073906;28;20198;-64
2022/12/13 07:31:08;;;;;;;25.67;15.67;;;-2.30;99.90;;;;;;5073851;28;20535;-63
2022/12/13 07:33:34;;;;;;;22.77;16.00;;;-2.20;99.90;;;;;;5073463;28;20181;-63
2022/12/13 07:36:29;;;;;;;24.67;16.77;;;-2.20;99.90;;;;;;5073721;28;20215;-63
2022/12/13 07:38:56;;;;;;;23.90;15.60;;;-2.00;99.90;;;;;;5070483;28;20352;-64
2022/12/13 07:41:23;;;;;;;29.57;16.53;;;-2.20;99.90;;;;;;5073705;28;20167;-65
2022/12/13 07:43:49;;;;;;;26.10;16.03;;;-2.20;99.90;;;;;;5073542;28;20216;-63
2022/12/13 07:46:15;;;;;;;23.90;15.47;;;-2.10;99.90;;;;;;5072063;28;20569;-63
2022/12/13 07:48:40;;;;;;;25.27;16.03;;;-2.10;99.90;;;;;;5073417;28;20179;-63
2022/12/13 07:51:10;;;;;;;24.13;15.30;;;-1.90;99.90;;;;;;5073303;28;20228;-63
2022/12/13 07:53:36;;;;;;;25.67;16.00;;;-2.00;99.90;;;;;;5073654;28;20179;-63
2022/12/13 07:56:08;;;;;;;24.67;15.80;;;-1.80;99.90;;;;;;5073422;28;20636;-63
2022/12/13 07:58:34;;;;;;;21.47;14.80;;;-1.80;99.90;;;;;;5073337;28;20262;-63
2022/12/13 08:01:01;;;;;;;25.90;15.73;;;-1.70;99.90;;;;;;5073347;28;20569;-63
2022/12/13 08:03:28;;;;;;;25.10;17.33;;;-1.80;99.90;;;;;;5073070;28;20278;-63
2022/12/13 08:06:11;;;;;;;22.30;15.77;;;-1.90;99.90;;;;;;5073342;28;20238;-63
2022/12/13 08:08:37;;;;;;;26.30;15.97;;;-1.90;99.90;;;;;;5073379;28;20182;-63
2022/12/13 08:11:09;;;;;;;26.73;16.17;;;-1.90;99.90;;;;;;5073114;28;20182;-64
2022/12/13 08:13:35;;;;;;;29.97;20.27;;;-1.80;99.90;;;;;;5073101;28;20178;-63
2022/12/13 08:16:03;;;;;;;25.57;17.70;;;-2.00;99.90;;;;;;5072946;28;20175;-63
2022/12/13 08:18:29;;;;;;;25.17;16.23;;;-2.00;99.90;;;;;;5073225;28;20175;-63
2022/12/13 08:21:03;;;;;;;25.43;16.33;;;-1.60;99.90;;;;;;5073244;28;20573;-63
2022/12/13 08:23:31;;;;;;;24.13;16.33;;;-1.30;99.90;;;;;;5073058;28;20171;-63
2022/12/13 08:25:57;;;;;;;27.67;17.27;;;-1.10;99.90;;;;;;5072921;28;20211;-63
2022/12/13 08:28:23;;;;;;;27.43;17.13;;;-1.10;99.90;;;;;;5072836;28;20250;-63
2022/12/13 08:30:53;;;;;;;24.90;16.60;;;-1.10;99.90;;;;;;5073154;28;20171;-63
2022/12/13 08:33:19;;;;;;;25.47;16.33;;;-0.90;99.90;;;;;;5073103;28;20701;-63
2022/12/13 08:35:46;;;;;;;23.50;16.63;;;-0.80;99.90;;;;;;5073302;28;20175;-64
2022/12/13 08:38:12;;;;;;;24.90;16.27;;;-0.70;99.90;;;;;;5073111;28;20171;-63
2022/12/13 08:40:38;;;;;;;31.80;16.97;;;-0.60;99.90;;;;;;5072923;28;20535;-63
2022/12/13 08:43:04;;;;;;;25.73;16.57;;;-0.70;99.90;;;;;;5072860;28;20179;-64
2022/12/13 08:45:33;;;;;;;25.73;16.67;;;-0.90;99.90;;;;;;5073461;28;20203;-64
2022/12/13 08:47:59;;;;;;;26.30;16.50;;;-0.70;99.90;;;;;;5077637;28;20184;-63
2022/12/13 08:50:25;;;;;;;26.43;17.37;;;-0.80;99.90;;;;;;5077084;28;20707;-64
2022/12/13 08:52:51;;;;;;;27.37;18.27;;;-0.70;99.90;;;;;;5077418;28;20269;-64
2022/12/13 08:55:17;;;;;;;26.37;17.43;;;-0.60;99.90;;;;;;5077369;28;20183;-64
2022/12/13 08:57:43;;;;;;;28.10;18.87;;;-0.40;99.90;;;;;;5077643;28;20178;-64
2022/12/13 09:00:15;;;;;;;28.00;17.63;;;-0.20;99.90;;;;;;5077853;28;20246;-64
2022/12/13 09:02:41;;;;;;;26.03;17.83;;;-0.50;99.90;;;;;;5077956;28;20206;-65
2022/12/13 09:05:08;;;;;;;27.60;17.47;;;-0.40;99.90;;;;;;5077820;28;20609;-64
2022/12/13 09:07:35;;;;;;;25.87;16.63;;;-0.30;99.90;;;;;;5078442;28;20175;-63
2022/12/13 09:10:02;;;;;;;23.97;16.50;;;-0.20;99.90;;;;;;5077595;28;20171;-64
2022/12/13 09:12:27;;;;;;;26.10;15.83;;;-0.30;99.90;;;;;;5077286;28;20198;-64
2022/12/13 09:14:53;;;;;;;23.93;16.77;;;-0.10;99.90;;;;;;5076571;28;20492;-64
2022/12/13 09:17:19;;;;;;;27.57;17.67;;;-0.10;99.90;;;;;;5076464;28;20536;-64
2022/12/13 09:19:44;;;;;;;23.27;16.20;;;-0.10;99.90;;;;;;5076323;28;20625;-64
2022/12/13 09:22:11;;;;;;;23.13;16.10;;;-0.30;99.90;;;;;;5076278;28;20652;-63
2022/12/13 09:24:37;;;;;;;26.53;17.17;;;-0.10;99.90;;;;;;5075811;28;20211;-64
2022/12/13 09:27:05;;;;;;;25.43;16.73;;;-0.20;99.90;;;;;;5076371;28;20188;-63
2022/12/13 09:29:32;;;;;;;26.80;17.77;;;-0.30;99.90;;;;;;5076166;28;20688;-64
2022/12/13 09:32:00;;;;;;;25.50;17.20;;;-0.20;99.90;;;;;;5076514;28;20177;-63
2022/12/13 09:34:29;;;;;;;24.47;16.97;;;-0.20;99.90;;;;;;5076174;28;20186;-64
2022/12/13 09:36:54;;;;;;;26.07;17.73;;;-0.30;99.90;;;;;;5075990;28;20236;-64
2022/12/13 09:39:20;;;;;;;27.13;17.40;;;-0.50;99.90;;;;;;5074719;28;20642;-66
2022/12/13 09:41:49;;;;;;;22.73;16.50;;;-0.50;99.90;;;;;;5076012;28;20643;-64
2022/12/13 09:44:26;;;;;;;24.60;16.47;;;-0.40;99.90;;;;;;5075904;28;20196;-64
2022/12/13 09:46:55;;;;;;;26.63;16.73;;;-0.20;99.90;;;;;;5075960;28;20712;-64
2022/12/13 09:49:40;;;;;;;24.77;16.77;;;0.00;99.90;;;;;;5075758;28;20167;-64
2022/12/13 09:52:11;;;;;;;25.80;17.10;;;0.30;99.90;;;;;;5075741;28;20590;-64
2022/12/13 09:54:38;;;;;;;23.53;16.47;;;0.50;99.90;;;;;;5075832;28;20212;-64
2022/12/13 09:57:13;;;;;;;25.57;17.10;;;0.60;99.90;;;;;;5075327;28;20592;-64
2022/12/13 09:59:40;;;;;;;27.63;18.37;;;0.30;99.90;;;;;;5075672;28;20663;-64
2022/12/13 10:02:28;;;;;;;22.37;15.77;;;0.30;99.90;;;;;;5075487;28;20176;-65
2022/12/13 10:05:14;;;;;;;24.30;16.70;;;0.20;99.90;;;;;;5074423;28;20544;-64
2022/12/13 10:07:40;;;;;;;26.90;16.90;;;0.30;99.90;;;;;;5075595;28;20173;-64
2022/12/13 10:10:08;;;;;;;23.27;16.80;;;0.50;99.90;;;;;;5075523;28;20203;-64
2022/12/13 10:12:35;;;;;;;25.43;16.10;;;0.70;99.90;;;;;;5075354;28;20190;-62
2022/12/13 10:15:02;;;;;;;27.20;18.27;;;0.80;99.90;;;;;;5075515;28;20182;-64
2022/12/13 10:17:39;;;;;;;24.80;17.40;;;0.80;99.90;;;;;;5075407;28;20175;-64
2022/12/13 10:20:07;;;;;;;25.33;17.00;;;0.90;99.90;;;;;;5075399;28;20254;-64
2022/12/13 10:22:33;;;;;;;27.53;18.67;;;1.10;99.90;;;;;;5075155;28;20175;-63
2022/12/13 10:25:04;;;;;;;23.70;17.17;;;1.00;99.90;;;;;;5075173;28;20708;-64
2022/12/13 10:27:45;;;;;;;25.07;17.03;;;0.10;99.90;;;;;;5075146;28;20182;-64
2022/12/13 10:30:11;;;;;;;23.30;15.47;;;-0.10;99.90;;;;;;5075100;28;20167;-64
2022/12/13 10:32:57;;;;;;;23.37;16.13;;;0.00;99.90;;;;;;5074941;28;20502;-64
2022/12/13 10:35:26;;;;;;;21.10;15.37;;;0.20;99.90;;;;;;5074739;28;20191;-63
2022/12/13 10:37:53;;;;;;;27.33;15.97;;;0.40;99.90;;;;;;5074945;28;20270;-64
2022/12/13 10:40:29;;;;;;;25.63;15.63;;;0.40;99.90;;;;;;5074864;28;20709;-64
2022/12/13 10:43:17;;;;;;;22.37;14.77;;;0.70;99.90;;;;;;5074951;28;20174;-64
2022/12/13 10:45:57;;;;;;;21.27;15.43;;;0.90;99.90;;;;;;5074523;28;20210;-64
2022/12/13 10:48:29;;;;;;;23.90;15.13;;;1.20;99.90;;;;;;5074653;28;20250;-64
2022/12/13 10:51:08;;;;;;;23.00;15.20;;;1.50;99.90;;;;;;5074533;28;20634;-64
2022/12/13 10:53:56;;;;;;;19.50;14.40;;;1.80;99.90;;;;;;5074757;28;20228;-64
2022/12/13 10:56:36;;;;;;;20.03;15.03;;;1.70;99.90;;;;;;5074425;28;20228;-64
2022/12/13 10:59:25;;;;;;;23.20;14.43;;;1.40;99.90;;;;;;5074704;28;20174;-64
2022/12/13 11:01:54;;;;;;;21.63;14.20;;;1.60;99.90;;;;;;5074467;28;20506;-64
2022/12/13 11:04:26;;;;;;;20.53;13.33;;;1.70;99.90;;;;;;5074336;28;20205;-64
2022/12/13 11:06:52;;;;;;;20.40;14.17;;;1.90;99.90;;;;;;5074019;28;20210;-64
2022/12/13 11:09:23;;;;;;;20.47;13.73;;;1.60;99.90;;;;;;5055808;28;20640;-66
2022/12/13 11:11:54;;;;;;;19.87;13.97;;;1.70;99.90;;;;;;5074286;28;20209;-65
2022/12/13 11:14:24;;;;;;;21.23;13.10;;;1.60;99.90;;;;;;5074299;28;20521;-64
2022/12/13 11:17:09;;;;;;;21.00;15.03;;;1.80;99.90;;;;;;5074140;28;20189;-64
2022/12/13 11:19:47;;;;;;;21.30;14.10;;;1.80;99.90;;;;;;5074217;28;20595;-64
2022/12/13 11:22:42;;;;;;;19.50;14.47;;;1.70;99.90;;;;;;5074147;28;20224;-64
2022/12/13 11:25:20;;;;;;;21.23;14.37;;;1.80;99.90;;;;;;5073317;28;20654;-64
2022/12/13 11:28:24;;;;;;;19.80;13.90;;;2.20;99.90;;;;;;5073796;28;20216;-62
2022/12/13 11:31:08;;;;;;;23.90;14.90;;;2.10;99.90;;;;;;5011931;28;20190;-64
2022/12/13 11:33:57;;;;;;;21.17;13.43;;;2.10;99.90;;;;;;5069882;28;20213;-64
2022/12/13 11:36:41;;;;;;;18.43;13.17;;;2.00;99.90;;;;;;5073910;28;20177;-63
2022/12/13 11:39:24;;;;;;;19.97;13.63;;;1.90;99.90;;;;;;5073792;28;20185;-64
2022/12/13 11:42:18;;;;;;;17.90;13.00;;;2.20;99.90;;;;;;5073730;28;20176;-65
2022/12/13 11:44:59;;;;;;;19.87;13.63;;;2.40;99.90;;;;;;5050983;28;20273;-65
2022/12/13 11:47:48;;;;;;;19.97;14.13;;;2.50;99.90;;;;;;5073617;28;20197;-64
2022/12/13 11:50:21;;;;;;;19.20;14.40;;;2.50;99.90;;;;;;5073671;28;20181;-64
2022/12/13 11:52:53;;;;;;;21.43;14.70;;;2.70;99.90;;;;;;5073932;28;20218;-64
2022/12/13 11:55:23;;;;;;;16.97;13.30;;;2.80;99.90;;;;;;5074558;28;20181;-65
2022/12/13 11:57:59;;;;;;;20.17;13.27;;;2.70;99.90;;;;;;5074133;28;20178;-66
2022/12/13 12:00:26;;;;;;;21.40;14.50;;;2.80;99.90;;;;;;5074432;28;20712;-65
2022/12/13 12:02:57;;;;;;;18.83;13.03;;;2.80;99.90;;;;;;5074302;28;20658;-65
2022/12/13 12:05:27;;;;;;;17.93;13.20;;;3.00;99.90;;;;;;5074210;28;20207;-65
2022/12/13 12:08:05;;;;;;;17.13;12.60;;;3.00;99.90;;;;;;5074199;28;20574;-65
2022/12/13 12:10:44;;;;;;;17.63;13.10;;;3.10;99.90;;;;;;5074399;28;20264;-65
2022/12/13 12:13:53;;;;;;;19.43;13.83;;;3.00;99.90;;;;;;5073600;28;20513;-65
2022/12/13 12:16:21;;;;;;;19.07;13.70;;;2.70;99.90;;;;;;5040615;28;20543;-66
2022/12/13 12:18:50;;;;;;;19.83;13.20;;;2.90;99.90;;;;;;5074160;28;20185;-65
2022/12/13 12:21:33;;;;;;;18.20;13.20;;;2.80;99.90;;;;;;5074776;28;20197;-65
2022/12/13 12:24:27;;;;;;;19.47;13.30;;;3.00;99.90;;;;;;5074645;28;20174;-65
2022/12/13 12:27:19;;;;;;;21.77;14.43;;;2.70;99.90;;;;;;5073387;28;20248;-65
2022/12/13 12:29:59;;;;;;;24.10;15.60;;;2.80;99.90;;;;;;5071996;28;20186;-65
2022/12/13 12:32:51;;;;;;;18.57;12.40;;;3.00;99.90;;;;;;5073430;28;20178;-65
2022/12/13 12:35:35;;;;;;;20.87;13.63;;;2.60;99.90;;;;;;5073049;28;20188;-65
2022/12/13 12:38:38;;;;;;;17.00;12.27;;;2.70;99.90;;;;;;5073067;28;20166;-65
2022/12/13 12:41:33;;;;;;;21.10;13.97;;;2.70;99.90;;;;;;5073095;28;20170;-65
2022/12/13 12:44:13;;;;;;;33.00;22.70;;;2.60;99.90;;;;;;5072928;28;20181;-64
2022/12/13 12:47:08;;;;;;;19.57;14.00;;;2.60;99.90;;;;;;5072702;28;20558;-65
2022/12/13 12:49:43;;;;;;;18.23;13.07;;;2.70;99.90;;;;;;5073069;28;20269;-63
2022/12/13 12:52:35;;;;;;;18.30;13.10;;;2.80;99.90;;;;;;5072927;28;20173;-65